createdAt,value
2023-05-09T00:02:18.016Z,13.06
2023-05-09T00:07:19.353Z,13.14
2023-05-09T00:12:21.648Z,13.11
2023-05-09T00:17:23.738Z,13.10
2023-05-09T00:22:25.073Z,13.05
2023-05-09T00:27:26.458Z,13.00
2023-05-09T00:32:29.148Z,13.04
2023-05-09T00:37:30.898Z,12.97
2023-05-09T00:42:33.963Z,12.94
2023-05-09T00:47:35.581Z,12.94
2023-05-09T00:52:37.070Z,12.92
2023-05-09T00:57:38.409Z,12.86
2023-05-09T01:02:44.314Z,12.84
2023-05-09T01:07:52.501Z,12.85
2023-05-09T01:13:09.972Z,12.96
2023-05-09T01:18:21.823Z,13.06
2023-05-09T01:23:38.548Z,13.25
2023-05-09T01:28:58.457Z,13.38
2023-05-09T01:34:02.528Z,13.45
2023-05-09T01:39:04.474Z,13.58
2023-05-09T01:44:08.076Z,13.54
2023-05-09T01:49:09.796Z,13.64
2023-05-09T01:54:12.447Z,13.65
2023-05-09T01:59:16.168Z,13.59
2023-05-09T02:04:18.013Z,13.61
2023-05-09T02:09:20.110Z,13.60
2023-05-09T02:14:22.002Z,13.62
2023-05-09T02:19:23.290Z,13.62
2023-05-09T02:24:24.632Z,13.58
2023-05-09T02:29:29.110Z,13.64
2023-05-09T02:34:30.836Z,13.68
2023-05-09T02:39:32.340Z,13.74
2023-05-09T02:44:34.429Z,13.79
2023-05-09T02:49:35.750Z,13.79
2023-05-09T02:54:37.333Z,13.87
2023-05-09T02:59:38.621Z,13.85
2023-05-09T03:04:40.034Z,13.84
2023-05-09T03:09:41.477Z,13.80
2023-05-09T03:14:42.812Z,13.75
2023-05-09T03:19:44.114Z,13.76
2023-05-09T03:24:45.414Z,13.78
2023-05-09T03:29:46.701Z,13.79
2023-05-09T03:34:48.011Z,13.88
2023-05-09T03:39:49.315Z,13.83
2023-05-09T03:44:50.772Z,13.82
2023-05-09T03:49:53.569Z,13.88
2023-05-09T03:54:54.948Z,13.90
2023-05-09T03:59:56.361Z,13.83
2023-05-09T04:04:57.688Z,13.76
2023-05-09T04:09:59.262Z,13.75
2023-05-09T04:15:00.739Z,13.74
2023-05-09T04:20:02.351Z,13.79
2023-05-09T04:25:07.290Z,13.83
2023-05-09T04:30:09.346Z,13.85
2023-05-09T04:35:10.728Z,13.87
2023-05-09T04:40:12.417Z,13.91
2023-05-09T04:45:14.416Z,13.91
2023-05-09T04:50:16.519Z,13.91
2023-05-09T04:55:17.833Z,13.92
2023-05-09T05:00:19.390Z,14.00
2023-05-09T05:05:25.074Z,14.13
2023-05-09T05:10:26.857Z,14.15
2023-05-09T05:15:28.150Z,14.23
2023-05-09T05:20:29.466Z,14.45
2023-05-09T05:25:31.295Z,14.58
2023-05-09T05:30:34.321Z,14.73
2023-05-09T05:35:35.964Z,14.70
2023-05-09T05:40:37.270Z,14.68
2023-05-09T05:45:38.614Z,14.57
2023-05-09T05:50:39.967Z,14.60
2023-05-09T05:55:41.296Z,14.77
2023-05-09T06:00:42.599Z,14.90
2023-05-09T06:05:44.269Z,15.01
2023-05-09T06:10:45.596Z,15.29
2023-05-09T06:15:47.000Z,15.91
2023-05-09T06:20:48.487Z,16.38
2023-05-09T06:25:49.845Z,17.48
2023-05-09T06:30:51.153Z,19.00
2023-05-09T06:35:52.451Z,20.13
2023-05-09T06:40:53.753Z,19.07
2023-05-09T06:45:55.098Z,17.39
2023-05-09T06:50:56.409Z,16.78
2023-05-09T06:55:57.706Z,16.82
2023-05-09T07:00:59.237Z,16.85
2023-05-09T07:06:00.558Z,16.89
2023-05-09T07:11:01.922Z,17.15
2023-05-09T07:16:03.807Z,17.76
2023-05-09T07:21:05.471Z,20.87
2023-05-09T07:26:06.780Z,21.62
2023-05-09T07:31:09.347Z,19.88
2023-05-09T07:36:13.204Z,20.08
2023-05-09T07:41:14.564Z,20.85
2023-05-09T07:46:16.034Z,20.71
2023-05-09T07:51:17.411Z,20.25
2023-05-09T07:56:18.730Z,22.23
2023-05-09T08:01:20.056Z,22.07
2023-05-09T08:06:21.448Z,21.81
2023-05-09T08:11:22.868Z,20.51
2023-05-09T08:16:24.217Z,20.51
2023-05-09T08:21:26.530Z,21.75
2023-05-09T08:26:27.881Z,22.25
2023-05-09T08:31:29.224Z,23.49
2023-05-09T08:36:30.600Z,26.10
2023-05-09T08:41:35.875Z,25.39
2023-05-09T08:46:38.716Z,22.26
2023-05-09T08:51:40.221Z,20.85
2023-05-09T08:56:41.727Z,21.54
2023-05-09T09:01:43.656Z,21.23
2023-05-09T09:06:45.392Z,20.88
2023-05-09T09:11:47.514Z,21.56
2023-05-09T09:16:49.775Z,22.25
2023-05-09T09:21:54.898Z,24.65
2023-05-09T09:26:56.311Z,24.12
2023-05-09T09:32:01.258Z,23.32
2023-05-09T09:37:02.813Z,23.49
2023-05-09T09:42:11.730Z,23.65
2023-05-09T09:47:13.031Z,22.57
2023-05-09T09:52:22.505Z,23.22
2023-05-09T09:57:37.248Z,24.41
2023-05-09T10:02:48.317Z,22.84
2023-05-09T10:07:53.511Z,23.80
2023-05-09T10:12:59.494Z,24.26
2023-05-09T10:18:04.396Z,24.04
2023-05-09T10:23:06.294Z,24.32
2023-05-09T10:28:12.231Z,24.65
2023-05-09T10:33:16.483Z,24.33
2023-05-09T10:38:18.777Z,24.28
2023-05-09T10:43:21.628Z,22.99
2023-05-09T10:48:24.248Z,23.72
2023-05-09T10:53:40.250Z,24.28
2023-05-09T10:58:42.119Z,23.78
2023-05-09T11:03:52.745Z,23.17
2023-05-09T11:08:54.377Z,23.24
2023-05-09T11:13:58.506Z,23.28
2023-05-09T11:19:00.198Z,22.33
2023-05-09T11:24:15.820Z,22.39
2023-05-09T11:29:17.643Z,22.02
2023-05-09T11:34:19.853Z,21.84
2023-05-09T11:39:24.930Z,21.71
2023-05-09T11:44:27.927Z,22.05
2023-05-09T11:49:29.758Z,22.09
2023-05-09T11:54:31.076Z,22.18
2023-05-09T11:59:35.616Z,23.52
2023-05-09T12:04:37.179Z,24.00
2023-05-09T12:09:38.673Z,23.54
2023-05-09T12:14:40.633Z,23.00
2023-05-09T12:19:42.136Z,23.23
2023-05-09T12:24:43.485Z,23.54
2023-05-09T12:29:47.541Z,23.14
2023-05-09T12:34:49.914Z,22.98
2023-05-09T12:40:04.949Z,23.18
2023-05-09T12:45:08.367Z,22.95
2023-05-09T12:50:10.805Z,23.92
2023-05-09T12:55:13.240Z,23.88
2023-05-09T13:00:17.651Z,24.00
2023-05-09T13:05:20.410Z,24.16
2023-05-09T13:10:26.063Z,24.01
2023-05-09T13:15:29.556Z,23.92
2023-05-09T13:20:30.852Z,23.41
2023-05-09T13:25:32.170Z,22.97
2023-05-09T13:30:33.545Z,22.26
2023-05-09T13:35:34.864Z,22.85
2023-05-09T13:40:37.846Z,22.62
2023-05-09T13:45:39.169Z,22.49
2023-05-09T13:50:40.564Z,22.37
2023-05-09T13:55:42.747Z,21.90
2023-05-09T14:00:44.068Z,21.27
2023-05-09T14:05:45.389Z,21.12
2023-05-09T14:10:47.989Z,21.36
2023-05-09T14:15:49.349Z,21.69
2023-05-09T14:20:50.725Z,21.44
2023-05-09T14:25:52.056Z,21.52
2023-05-09T14:30:53.616Z,21.19
2023-05-09T14:35:54.964Z,20.66
2023-05-09T14:40:56.673Z,20.20
2023-05-09T14:45:58.315Z,19.93
2023-05-09T14:51:00.411Z,19.55
2023-05-09T14:56:02.558Z,19.31
2023-05-09T15:01:06.895Z,19.26
2023-05-09T15:06:08.247Z,19.12
2023-05-09T15:11:09.584Z,18.98
2023-05-09T15:16:11.012Z,18.81
2023-05-09T15:21:13.490Z,18.68
2023-05-09T15:26:16.864Z,18.59
2023-05-09T15:31:21.529Z,18.33
2023-05-09T15:36:22.873Z,18.22
2023-05-09T15:41:24.320Z,18.08
2023-05-09T15:46:25.684Z,17.73
2023-05-09T15:51:29.909Z,17.75
2023-05-09T15:56:31.244Z,17.50
2023-05-09T16:01:35.103Z,17.40
2023-05-09T16:06:37.194Z,17.19
2023-05-09T16:11:38.568Z,16.94
2023-05-09T16:16:40.412Z,16.84
2023-05-09T16:21:41.968Z,16.94
2023-05-09T16:26:43.314Z,16.84
2023-05-09T16:31:44.916Z,16.89
2023-05-09T16:36:47.420Z,16.71
2023-05-09T16:41:48.728Z,16.71
2023-05-09T16:46:50.010Z,16.53
2023-05-09T16:51:51.319Z,16.26
2023-05-09T16:56:52.640Z,16.31
2023-05-09T17:01:54.018Z,16.29
2023-05-09T17:06:55.361Z,16.20
2023-05-09T17:11:56.705Z,16.23
2023-05-09T17:16:58.611Z,15.97
2023-05-09T17:22:04.173Z,15.85
2023-05-09T17:27:05.559Z,15.78
2023-05-09T17:32:06.918Z,15.70
2023-05-09T17:37:09.105Z,15.57
2023-05-09T17:42:12.229Z,15.50
2023-05-09T17:47:14.264Z,15.39
2023-05-09T17:52:15.630Z,15.29
2023-05-09T17:57:16.920Z,15.30
2023-05-09T18:02:23.758Z,15.30
2023-05-09T18:07:26.128Z,15.26
2023-05-09T18:12:31.106Z,15.19
2023-05-09T18:17:32.438Z,15.23
2023-05-09T18:22:33.796Z,15.17
2023-05-09T18:27:35.099Z,15.07
2023-05-09T18:32:36.398Z,15.07
2023-05-09T18:37:37.778Z,15.03
2023-05-09T18:42:39.078Z,15.03
2023-05-09T18:47:40.478Z,15.00
2023-05-09T18:52:44.241Z,14.96
2023-05-09T18:57:45.710Z,14.93
2023-05-09T19:02:47.208Z,14.89
2023-05-09T19:07:48.553Z,14.90
2023-05-09T19:12:50.464Z,14.86
2023-05-09T19:17:51.893Z,14.85
2023-05-09T19:22:53.296Z,14.79
2023-05-09T19:27:54.604Z,14.71
2023-05-09T19:32:56.085Z,14.52
2023-05-09T19:37:57.829Z,14.41
2023-05-09T19:42:59.175Z,14.41
2023-05-09T19:48:00.696Z,14.34
2023-05-09T19:53:02.132Z,14.20
2023-05-09T19:58:03.866Z,14.13
2023-05-09T20:03:05.280Z,14.05
2023-05-09T20:08:07.263Z,13.95
2023-05-09T20:13:08.630Z,13.90
2023-05-09T20:18:10.056Z,13.84
2023-05-09T20:23:11.517Z,13.72
2023-05-09T20:28:16.234Z,13.67
2023-05-09T20:33:17.605Z,13.57
2023-05-09T20:38:19.601Z,13.39
2023-05-09T20:43:20.922Z,13.38
2023-05-09T20:48:23.386Z,13.40
2023-05-09T20:53:26.569Z,13.38
2023-05-09T20:58:31.090Z,13.38
2023-05-09T21:03:32.571Z,13.40
2023-05-09T21:08:33.896Z,13.41
2023-05-09T21:13:35.382Z,13.40
2023-05-09T21:18:36.712Z,13.38
2023-05-09T21:23:38.040Z,13.37
2023-05-09T21:28:39.575Z,13.30
2023-05-09T21:33:40.881Z,13.35
2023-05-09T21:38:42.173Z,13.37
2023-05-09T21:43:43.506Z,13.30
2023-05-09T21:48:44.791Z,13.12
2023-05-09T21:53:46.406Z,13.07
2023-05-09T21:58:47.721Z,12.97
2023-05-09T22:03:49.149Z,12.83
2023-05-09T22:08:51.125Z,12.82
2023-05-09T22:13:52.435Z,12.77
2023-05-09T22:18:53.779Z,12.80
2023-05-09T22:23:55.126Z,12.77
2023-05-09T22:28:56.424Z,12.72
2023-05-09T22:33:57.730Z,12.59
2023-05-09T22:38:59.078Z,12.60
2023-05-09T22:44:00.596Z,12.64
2023-05-09T22:49:02.058Z,12.64
2023-05-09T22:54:03.643Z,12.69
2023-05-09T22:59:05.276Z,12.66
2023-05-09T23:04:06.889Z,12.66
2023-05-09T23:09:08.246Z,12.63
2023-05-09T23:14:09.653Z,12.60
2023-05-09T23:19:11.006Z,12.64
2023-05-09T23:24:12.351Z,12.47
2023-05-09T23:29:13.686Z,12.41
2023-05-09T23:34:15.032Z,12.37
2023-05-09T23:39:16.369Z,12.38
2023-05-09T23:44:17.741Z,12.40
2023-05-09T23:49:19.111Z,12.33
2023-05-09T23:54:21.538Z,12.26
2023-05-09T23:59:22.848Z,12.28
